sensor_id;sensor_type;location;lat;lon;timestamp;P1;durP1;ratioP1;P2;durP2;ratioP2
44272;SDS011;29964;17.182;-96.766;2023-05-23T00:01:37;4.03;;;1.55;;
44272;SDS011;29964;17.182;-96.766;2023-05-23T00:04:04;5.95;;;1.40;;
44272;SDS011;29964;17.182;-96.766;2023-05-23T00:06:31;1.85;;;1.00;;
44272;SDS011;29964;17.182;-96.766;2023-05-23T00:08:58;5.40;;;1.20;;
44272;SDS011;29964;17.182;-96.766;2023-05-23T00:11:25;3.15;;;1.17;;
44272;SDS011;29964;17.182;-96.766;2023-05-23T00:13:53;1.85;;;1.00;;
44272;SDS011;29964;17.182;-96.766;2023-05-23T00:16:21;0.98;;;0.80;;
44272;SDS011;29964;17.182;-96.766;2023-05-23T00:18:48;1.65;;;0.93;;
44272;SDS011;29964;17.182;-96.766;2023-05-23T00:21:16;1.85;;;1.20;;
44272;SDS011;29964;17.182;-96.766;2023-05-23T00:23:42;4.03;;;1.33;;
44272;SDS011;29964;17.182;-96.766;2023-05-23T00:26:09;0.70;;;0.65;;
44272;SDS011;29964;17.182;-96.766;2023-05-23T00:28:36;6.53;;;1.08;;
44272;SDS011;29964;17.182;-96.766;2023-05-23T00:31:03;3.65;;;2.15;;
44272;SDS011;29964;17.182;-96.766;2023-05-23T00:33:30;1.25;;;0.80;;
44272;SDS011;29964;17.182;-96.766;2023-05-23T00:36:04;1.85;;;1.05;;
44272;SDS011;29964;17.182;-96.766;2023-05-23T00:38:30;2.08;;;1.52;;
44272;SDS011;29964;17.182;-96.766;2023-05-23T00:40:57;2.05;;;1.02;;
44272;SDS011;29964;17.182;-96.766;2023-05-23T00:43:25;8.10;;;1.52;;
44272;SDS011;29964;17.182;-96.766;2023-05-23T00:45:53;5.20;;;1.42;;
44272;SDS011;29964;17.182;-96.766;2023-05-23T00:48:20;1.85;;;1.30;;
44272;SDS011;29964;17.182;-96.766;2023-05-23T00:50:47;1.85;;;1.25;;
44272;SDS011;29964;17.182;-96.766;2023-05-23T00:53:14;1.80;;;1.17;;
44272;SDS011;29964;17.182;-96.766;2023-05-23T00:55:41;1.70;;;1.30;;
44272;SDS011;29964;17.182;-96.766;2023-05-23T00:58:08;20.98;;;1.70;;
44272;SDS011;29964;17.182;-96.766;2023-05-23T01:00:36;1.90;;;1.27;;
44272;SDS011;29964;17.182;-96.766;2023-05-23T01:03:03;2.70;;;1.30;;
44272;SDS011;29964;17.182;-96.766;2023-05-23T01:05:30;2.10;;;1.35;;
44272;SDS011;29964;17.182;-96.766;2023-05-23T01:07:57;1.95;;;1.20;;
44272;SDS011;29964;17.182;-96.766;2023-05-23T01:10:28;1.90;;;1.10;;
44272;SDS011;29964;17.182;-96.766;2023-05-23T01:13:09;2.83;;;1.70;;
44272;SDS011;29964;17.182;-96.766;2023-05-23T01:20:58;6.45;;;1.83;;
44272;SDS011;29964;17.182;-96.766;2023-05-23T01:28:51;1.70;;;1.27;;
44272;SDS011;29964;17.182;-96.766;2023-05-23T01:31:20;2.97;;;1.10;;
44272;SDS011;29964;17.182;-96.766;2023-05-23T01:33:49;3.58;;;1.58;;
44272;SDS011;29964;17.182;-96.766;2023-05-23T01:36:17;1.52;;;1.02;;
44272;SDS011;29964;17.182;-96.766;2023-05-23T01:38:44;1.67;;;1.15;;
44272;SDS011;29964;17.182;-96.766;2023-05-23T01:41:11;1.10;;;0.95;;
44272;SDS011;29964;17.182;-96.766;2023-05-23T01:43:37;2.60;;;1.50;;
44272;SDS011;29964;17.182;-96.766;2023-05-23T01:46:05;4.93;;;1.17;;
44272;SDS011;29964;17.182;-96.766;2023-05-23T01:48:32;2.77;;;1.67;;
44272;SDS011;29964;17.182;-96.766;2023-05-23T01:51:00;2.43;;;1.60;;
44272;SDS011;29964;17.182;-96.766;2023-05-23T01:53:26;5.47;;;2.10;;
44272;SDS011;29964;17.182;-96.766;2023-05-23T01:55:54;1.83;;;1.33;;
44272;SDS011;29964;17.182;-96.766;2023-05-23T01:58:21;3.10;;;1.70;;
44272;SDS011;29964;17.182;-96.766;2023-05-23T02:00:48;10.53;;;2.07;;
44272;SDS011;29964;17.182;-96.766;2023-05-23T02:03:15;5.17;;;2.13;;
44272;SDS011;29964;17.182;-96.766;2023-05-23T02:05:42;4.23;;;2.10;;
44272;SDS011;29964;17.182;-96.766;2023-05-23T02:08:08;2.80;;;1.83;;
44272;SDS011;29964;17.182;-96.766;2023-05-23T02:10:37;3.90;;;1.80;;
44272;SDS011;29964;17.182;-96.766;2023-05-23T02:13:04;3.43;;;1.97;;
44272;SDS011;29964;17.182;-96.766;2023-05-23T02:15:31;3.13;;;1.30;;
44272;SDS011;29964;17.182;-96.766;2023-05-23T02:17:58;6.70;;;2.23;;
44272;SDS011;29964;17.182;-96.766;2023-05-23T02:20:27;3.43;;;1.40;;
44272;SDS011;29964;17.182;-96.766;2023-05-23T02:22:54;4.27;;;1.93;;
44272;SDS011;29964;17.182;-96.766;2023-05-23T02:25:20;5.43;;;2.10;;
44272;SDS011;29964;17.182;-96.766;2023-05-23T02:27:47;3.13;;;2.07;;
44272;SDS011;29964;17.182;-96.766;2023-05-23T02:30:14;3.93;;;2.03;;
44272;SDS011;29964;17.182;-96.766;2023-05-23T02:32:41;2.17;;;1.53;;
44272;SDS011;29964;17.182;-96.766;2023-05-23T02:35:07;2.23;;;1.33;;
44272;SDS011;29964;17.182;-96.766;2023-05-23T02:37:35;4.60;;;2.07;;
44272;SDS011;29964;17.182;-96.766;2023-05-23T02:40:01;3.70;;;2.27;;
44272;SDS011;29964;17.182;-96.766;2023-05-23T02:42:28;6.10;;;2.63;;
44272;SDS011;29964;17.182;-96.766;2023-05-23T02:44:55;3.37;;;1.87;;
44272;SDS011;29964;17.182;-96.766;2023-05-23T02:47:22;2.27;;;1.70;;
44272;SDS011;29964;17.182;-96.766;2023-05-23T02:49:49;2.07;;;1.50;;
44272;SDS011;29964;17.182;-96.766;2023-05-23T02:52:15;3.07;;;1.70;;
44272;SDS011;29964;17.182;-96.766;2023-05-23T02:54:42;2.97;;;2.07;;
44272;SDS011;29964;17.182;-96.766;2023-05-23T02:57:09;2.87;;;1.80;;
44272;SDS011;29964;17.182;-96.766;2023-05-23T02:59:36;4.20;;;1.83;;
44272;SDS011;29964;17.182;-96.766;2023-05-23T03:02:02;3.50;;;2.30;;
44272;SDS011;29964;17.182;-96.766;2023-05-23T03:04:31;3.70;;;2.03;;
44272;SDS011;29964;17.182;-96.766;2023-05-23T03:07:00;13.20;;;1.70;;
44272;SDS011;29964;17.182;-96.766;2023-05-23T03:09:27;4.43;;;2.20;;
44272;SDS011;29964;17.182;-96.766;2023-05-23T03:11:54;3.00;;;1.70;;
44272;SDS011;29964;17.182;-96.766;2023-05-23T03:14:21;5.10;;;2.70;;
44272;SDS011;29964;17.182;-96.766;2023-05-23T03:16:48;7.67;;;2.67;;
44272;SDS011;29964;17.182;-96.766;2023-05-23T03:19:14;2.43;;;1.80;;
44272;SDS011;29964;17.182;-96.766;2023-05-23T03:21:41;3.80;;;2.23;;
44272;SDS011;29964;17.182;-96.766;2023-05-23T03:24:08;5.20;;;2.00;;
44272;SDS011;29964;17.182;-96.766;2023-05-23T03:26:36;2.73;;;1.57;;
44272;SDS011;29964;17.182;-96.766;2023-05-23T03:29:02;4.47;;;2.87;;
44272;SDS011;29964;17.182;-96.766;2023-05-23T03:31:30;8.43;;;2.93;;
44272;SDS011;29964;17.182;-96.766;2023-05-23T03:33:57;10.17;;;3.00;;
44272;SDS011;29964;17.182;-96.766;2023-05-23T03:36:24;3.73;;;1.90;;
44272;SDS011;29964;17.182;-96.766;2023-05-23T03:38:52;3.63;;;2.27;;
44272;SDS011;29964;17.182;-96.766;2023-05-23T03:41:19;3.60;;;2.20;;
44272;SDS011;29964;17.182;-96.766;2023-05-23T03:43:46;10.83;;;2.27;;
44272;SDS011;29964;17.182;-96.766;2023-05-23T03:46:12;11.07;;;2.67;;
44272;SDS011;29964;17.182;-96.766;2023-05-23T03:48:39;3.60;;;2.23;;
44272;SDS011;29964;17.182;-96.766;2023-05-23T03:51:06;3.70;;;2.23;;
44272;SDS011;29964;17.182;-96.766;2023-05-23T03:53:33;4.27;;;2.67;;
44272;SDS011;29964;17.182;-96.766;2023-05-23T03:55:59;3.37;;;2.10;;
44272;SDS011;29964;17.182;-96.766;2023-05-23T03:58:26;4.03;;;2.43;;
44272;SDS011;29964;17.182;-96.766;2023-05-23T04:00:53;5.73;;;2.33;;
44272;SDS011;29964;17.182;-96.766;2023-05-23T04:03:20;1.87;;;1.30;;
44272;SDS011;29964;17.182;-96.766;2023-05-23T04:05:46;3.93;;;2.00;;
44272;SDS011;29964;17.182;-96.766;2023-05-23T04:08:13;9.93;;;1.60;;
44272;SDS011;29964;17.182;-96.766;2023-05-23T04:10:40;2.17;;;1.67;;
44272;SDS011;29964;17.182;-96.766;2023-05-23T04:13:07;2.53;;;1.90;;
44272;SDS011;29964;17.182;-96.766;2023-05-23T04:15:34;4.67;;;2.40;;
44272;SDS011;29964;17.182;-96.766;2023-05-23T04:18:00;3.27;;;2.27;;
44272;SDS011;29964;17.182;-96.766;2023-05-23T04:20:28;1.47;;;1.30;;
44272;SDS011;29964;17.182;-96.766;2023-05-23T04:22:55;4.43;;;2.30;;
44272;SDS011;29964;17.182;-96.766;2023-05-23T04:25:22;2.63;;;1.40;;
44272;SDS011;29964;17.182;-96.766;2023-05-23T04:27:49;4.13;;;2.30;;
44272;SDS011;29964;17.182;-96.766;2023-05-23T04:30:15;10.83;;;2.33;;
44272;SDS011;29964;17.182;-96.766;2023-05-23T04:32:43;3.63;;;2.40;;
44272;SDS011;29964;17.182;-96.766;2023-05-23T04:35:10;3.67;;;2.20;;
44272;SDS011;29964;17.182;-96.766;2023-05-23T04:37:37;5.00;;;2.20;;
44272;SDS011;29964;17.182;-96.766;2023-05-23T04:40:06;3.27;;;2.20;;
44272;SDS011;29964;17.182;-96.766;2023-05-23T04:42:33;11.20;;;2.20;;
44272;SDS011;29964;17.182;-96.766;2023-05-23T04:45:00;3.30;;;2.00;;
44272;SDS011;29964;17.182;-96.766;2023-05-23T04:47:28;8.67;;;2.73;;
44272;SDS011;29964;17.182;-96.766;2023-05-23T04:49:59;3.37;;;1.73;;
44272;SDS011;29964;17.182;-96.766;2023-05-23T04:52:26;2.37;;;1.70;;
44272;SDS011;29964;17.182;-96.766;2023-05-23T04:54:54;3.10;;;1.87;;
44272;SDS011;29964;17.182;-96.766;2023-05-23T04:57:20;3.70;;;1.67;;
44272;SDS011;29964;17.182;-96.766;2023-05-23T04:59:47;3.40;;;2.17;;
44272;SDS011;29964;17.182;-96.766;2023-05-23T05:02:15;2.00;;;1.63;;
44272;SDS011;29964;17.182;-96.766;2023-05-23T05:04:42;2.50;;;2.03;;
44272;SDS011;29964;17.182;-96.766;2023-05-23T05:07:08;3.83;;;2.47;;
44272;SDS011;29964;17.182;-96.766;2023-05-23T05:09:35;2.80;;;1.80;;
44272;SDS011;29964;17.182;-96.766;2023-05-23T05:12:02;3.20;;;1.80;;
44272;SDS011;29964;17.182;-96.766;2023-05-23T05:14:29;5.60;;;1.63;;
44272;SDS011;29964;17.182;-96.766;2023-05-23T05:16:56;3.53;;;2.07;;
44272;SDS011;29964;17.182;-96.766;2023-05-23T05:19:23;5.47;;;2.20;;
44272;SDS011;29964;17.182;-96.766;2023-05-23T05:21:49;7.50;;;2.63;;
44272;SDS011;29964;17.182;-96.766;2023-05-23T05:24:16;2.80;;;1.60;;
44272;SDS011;29964;17.182;-96.766;2023-05-23T05:26:45;3.37;;;2.17;;
44272;SDS011;29964;17.182;-96.766;2023-05-23T05:29:12;3.03;;;1.83;;
44272;SDS011;29964;17.182;-96.766;2023-05-23T05:31:39;4.07;;;1.87;;
44272;SDS011;29964;17.182;-96.766;2023-05-23T05:34:06;6.73;;;2.53;;
44272;SDS011;29964;17.182;-96.766;2023-05-23T05:36:32;5.30;;;1.73;;
44272;SDS011;29964;17.182;-96.766;2023-05-23T05:39:00;2.10;;;1.33;;
44272;SDS011;29964;17.182;-96.766;2023-05-23T05:41:26;2.57;;;1.87;;
44272;SDS011;29964;17.182;-96.766;2023-05-23T05:43:53;3.77;;;2.13;;
44272;SDS011;29964;17.182;-96.766;2023-05-23T05:46:20;4.50;;;1.70;;
44272;SDS011;29964;17.182;-96.766;2023-05-23T05:48:46;2.50;;;1.70;;
44272;SDS011;29964;17.182;-96.766;2023-05-23T05:51:13;2.07;;;1.60;;
44272;SDS011;29964;17.182;-96.766;2023-05-23T05:53:40;2.07;;;1.57;;
44272;SDS011;29964;17.182;-96.766;2023-05-23T05:56:07;2.63;;;1.90;;
44272;SDS011;29964;17.182;-96.766;2023-05-23T05:58:34;3.23;;;2.20;;
44272;SDS011;29964;17.182;-96.766;2023-05-23T06:01:00;3.83;;;2.27;;
44272;SDS011;29964;17.182;-96.766;2023-05-23T06:03:27;4.20;;;2.60;;
44272;SDS011;29964;17.182;-96.766;2023-05-23T06:05:54;2.87;;;1.60;;
44272;SDS011;29964;17.182;-96.766;2023-05-23T06:08:21;11.53;;;2.17;;
44272;SDS011;29964;17.182;-96.766;2023-05-23T06:10:48;4.10;;;1.30;;
44272;SDS011;29964;17.182;-96.766;2023-05-23T06:13:15;2.63;;;2.00;;
44272;SDS011;29964;17.182;-96.766;2023-05-23T06:15:42;5.53;;;2.43;;
44272;SDS011;29964;17.182;-96.766;2023-05-23T06:18:09;3.07;;;1.97;;
44272;SDS011;29964;17.182;-96.766;2023-05-23T06:20:36;2.00;;;1.53;;
44272;SDS011;29964;17.182;-96.766;2023-05-23T06:23:02;2.43;;;1.70;;
44272;SDS011;29964;17.182;-96.766;2023-05-23T06:25:30;4.67;;;2.00;;
44272;SDS011;29964;17.182;-96.766;2023-05-23T06:27:57;4.37;;;1.80;;
44272;SDS011;29964;17.182;-96.766;2023-05-23T06:30:23;2.27;;;1.60;;
44272;SDS011;29964;17.182;-96.766;2023-05-23T06:32:50;3.90;;;2.20;;
44272;SDS011;29964;17.182;-96.766;2023-05-23T06:35:17;2.47;;;1.93;;
44272;SDS011;29964;17.182;-96.766;2023-05-23T06:37:44;3.33;;;2.20;;
44272;SDS011;29964;17.182;-96.766;2023-05-23T06:40:11;2.13;;;1.77;;
44272;SDS011;29964;17.182;-96.766;2023-05-23T06:42:41;5.03;;;2.43;;
44272;SDS011;29964;17.182;-96.766;2023-05-23T06:45:08;6.07;;;2.70;;
44272;SDS011;29964;17.182;-96.766;2023-05-23T06:47:35;2.40;;;1.70;;
44272;SDS011;29964;17.182;-96.766;2023-05-23T06:50:02;3.57;;;1.93;;
44272;SDS011;29964;17.182;-96.766;2023-05-23T06:52:28;1.90;;;1.33;;
44272;SDS011;29964;17.182;-96.766;2023-05-23T06:54:55;2.50;;;1.57;;
44272;SDS011;29964;17.182;-96.766;2023-05-23T06:57:22;6.30;;;2.97;;
44272;SDS011;29964;17.182;-96.766;2023-05-23T06:59:49;4.30;;;2.70;;
44272;SDS011;29964;17.182;-96.766;2023-05-23T07:02:15;2.87;;;2.07;;
44272;SDS011;29964;17.182;-96.766;2023-05-23T07:04:42;4.70;;;2.37;;
44272;SDS011;29964;17.182;-96.766;2023-05-23T07:07:09;3.27;;;2.00;;
44272;SDS011;29964;17.182;-96.766;2023-05-23T07:09:36;3.73;;;2.57;;
44272;SDS011;29964;17.182;-96.766;2023-05-23T07:12:04;8.47;;;3.27;;
44272;SDS011;29964;17.182;-96.766;2023-05-23T07:14:31;2.87;;;1.90;;
44272;SDS011;29964;17.182;-96.766;2023-05-23T07:17:00;5.60;;;2.30;;
44272;SDS011;29964;17.182;-96.766;2023-05-23T07:19:26;4.77;;;2.57;;
44272;SDS011;29964;17.182;-96.766;2023-05-23T07:21:53;2.87;;;2.07;;
44272;SDS011;29964;17.182;-96.766;2023-05-23T07:24:20;2.87;;;2.10;;
44272;SDS011;29964;17.182;-96.766;2023-05-23T07:26:47;25.53;;;2.10;;
44272;SDS011;29964;17.182;-96.766;2023-05-23T07:29:13;2.07;;;1.70;;
44272;SDS011;29964;17.182;-96.766;2023-05-23T07:31:40;2.63;;;1.87;;
44272;SDS011;29964;17.182;-96.766;2023-05-23T07:34:07;10.03;;;1.97;;
44272;SDS011;29964;17.182;-96.766;2023-05-23T07:36:34;2.90;;;2.10;;
44272;SDS011;29964;17.182;-96.766;2023-05-23T07:39:02;3.23;;;2.13;;
44272;SDS011;29964;17.182;-96.766;2023-05-23T07:41:29;4.00;;;2.20;;
44272;SDS011;29964;17.182;-96.766;2023-05-23T07:43:55;5.27;;;2.93;;
44272;SDS011;29964;17.182;-96.766;2023-05-23T07:46:22;6.20;;;2.10;;
44272;SDS011;29964;17.182;-96.766;2023-05-23T07:48:49;7.30;;;2.33;;
44272;SDS011;29964;17.182;-96.766;2023-05-23T07:51:16;3.50;;;2.60;;
44272;SDS011;29964;17.182;-96.766;2023-05-23T07:53:45;1.90;;;1.53;;
44272;SDS011;29964;17.182;-96.766;2023-05-23T07:56:12;3.47;;;2.23;;
44272;SDS011;29964;17.182;-96.766;2023-05-23T07:58:39;3.33;;;2.50;;
44272;SDS011;29964;17.182;-96.766;2023-05-23T08:01:06;3.80;;;2.90;;
44272;SDS011;29964;17.182;-96.766;2023-05-23T08:03:32;4.07;;;2.37;;
44272;SDS011;29964;17.182;-96.766;2023-05-23T08:05:59;3.13;;;1.90;;
44272;SDS011;29964;17.182;-96.766;2023-05-23T08:08:26;3.30;;;1.97;;
44272;SDS011;29964;17.182;-96.766;2023-05-23T08:10:53;3.30;;;2.27;;
44272;SDS011;29964;17.182;-96.766;2023-05-23T08:13:20;2.40;;;1.57;;
44272;SDS011;29964;17.182;-96.766;2023-05-23T08:15:46;4.93;;;2.70;;
44272;SDS011;29964;17.182;-96.766;2023-05-23T08:18:13;2.03;;;1.70;;
44272;SDS011;29964;17.182;-96.766;2023-05-23T08:20:41;19.43;;;2.30;;
44272;SDS011;29964;17.182;-96.766;2023-05-23T08:23:07;3.17;;;2.17;;
44272;SDS011;29964;17.182;-96.766;2023-05-23T08:25:36;4.27;;;2.83;;
44272;SDS011;29964;17.182;-96.766;2023-05-23T08:28:03;3.07;;;2.30;;
44272;SDS011;29964;17.182;-96.766;2023-05-23T08:30:29;2.97;;;1.80;;
44272;SDS011;29964;17.182;-96.766;2023-05-23T08:32:58;3.07;;;2.13;;
44272;SDS011;29964;17.182;-96.766;2023-05-23T08:35:28;4.20;;;2.67;;
44272;SDS011;29964;17.182;-96.766;2023-05-23T08:38:00;2.80;;;2.00;;
44272;SDS011;29964;17.182;-96.766;2023-05-23T08:40:26;3.00;;;2.30;;
44272;SDS011;29964;17.182;-96.766;2023-05-23T08:42:56;3.13;;;1.97;;
44272;SDS011;29964;17.182;-96.766;2023-05-23T08:45:23;5.47;;;3.33;;
44272;SDS011;29964;17.182;-96.766;2023-05-23T08:47:50;5.73;;;3.43;;
44272;SDS011;29964;17.182;-96.766;2023-05-23T08:50:17;8.80;;;3.17;;
44272;SDS011;29964;17.182;-96.766;2023-05-23T08:52:54;3.77;;;2.57;;
44272;SDS011;29964;17.182;-96.766;2023-05-23T08:55:25;3.37;;;2.07;;
44272;SDS011;29964;17.182;-96.766;2023-05-23T08:57:53;3.23;;;2.07;;
44272;SDS011;29964;17.182;-96.766;2023-05-23T09:00:20;4.63;;;3.07;;
44272;SDS011;29964;17.182;-96.766;2023-05-23T09:02:47;13.20;;;3.57;;
44272;SDS011;29964;17.182;-96.766;2023-05-23T09:05:14;4.43;;;3.17;;
44272;SDS011;29964;17.182;-96.766;2023-05-23T09:07:42;6.87;;;3.33;;
44272;SDS011;29964;17.182;-96.766;2023-05-23T09:10:09;5.03;;;2.87;;
44272;SDS011;29964;17.182;-96.766;2023-05-23T09:12:36;3.33;;;2.40;;
44272;SDS011;29964;17.182;-96.766;2023-05-23T09:15:03;2.73;;;2.43;;
44272;SDS011;29964;17.182;-96.766;2023-05-23T09:17:31;4.20;;;3.23;;
44272;SDS011;29964;17.182;-96.766;2023-05-23T09:20:10;4.90;;;2.63;;
44272;SDS011;29964;17.182;-96.766;2023-05-23T09:22:38;3.47;;;2.30;;
44272;SDS011;29964;17.182;-96.766;2023-05-23T09:25:05;6.00;;;2.87;;
44272;SDS011;29964;17.182;-96.766;2023-05-23T09:27:33;6.50;;;3.60;;
44272;SDS011;29964;17.182;-96.766;2023-05-23T09:30:06;6.67;;;3.07;;
44272;SDS011;29964;17.182;-96.766;2023-05-23T09:32:33;3.57;;;2.37;;
44272;SDS011;29964;17.182;-96.766;2023-05-23T09:35:04;3.87;;;2.90;;
44272;SDS011;29964;17.182;-96.766;2023-05-23T09:37:44;5.53;;;3.57;;
44272;SDS011;29964;17.182;-96.766;2023-05-23T09:40:11;8.63;;;3.20;;
44272;SDS011;29964;17.182;-96.766;2023-05-23T09:42:42;5.17;;;3.63;;
44272;SDS011;29964;17.182;-96.766;2023-05-23T09:45:10;7.47;;;3.50;;
44272;SDS011;29964;17.182;-96.766;2023-05-23T09:47:37;5.30;;;2.83;;
44272;SDS011;29964;17.182;-96.766;2023-05-23T09:50:04;2.97;;;2.07;;
44272;SDS011;29964;17.182;-96.766;2023-05-23T09:52:35;2.97;;;2.10;;
44272;SDS011;29964;17.182;-96.766;2023-05-23T09:55:03;8.27;;;4.13;;
44272;SDS011;29964;17.182;-96.766;2023-05-23T09:57:30;4.50;;;2.80;;
44272;SDS011;29964;17.182;-96.766;2023-05-23T10:00:02;4.33;;;2.97;;
44272;SDS011;29964;17.182;-96.766;2023-05-23T10:02:54;3.80;;;2.87;;
44272;SDS011;29964;17.182;-96.766;2023-05-23T10:05:30;4.28;;;3.03;;
44272;SDS011;29964;17.182;-96.766;2023-05-23T10:08:00;3.45;;;2.78;;
44272;SDS011;29964;17.182;-96.766;2023-05-23T10:10:29;6.03;;;4.23;;
44272;SDS011;29964;17.182;-96.766;2023-05-23T10:13:02;1.93;;;1.73;;
44272;SDS011;29964;17.182;-96.766;2023-05-23T10:15:31;6.57;;;3.83;;
44272;SDS011;29964;17.182;-96.766;2023-05-23T10:18:01;3.20;;;2.40;;
44272;SDS011;29964;17.182;-96.766;2023-05-23T10:20:30;6.93;;;3.67;;
44272;SDS011;29964;17.182;-96.766;2023-05-23T10:23:00;3.30;;;2.70;;
44272;SDS011;29964;17.182;-96.766;2023-05-23T10:25:29;4.67;;;3.00;;
44272;SDS011;29964;17.182;-96.766;2023-05-23T10:27:57;5.23;;;2.50;;
44272;SDS011;29964;17.182;-96.766;2023-05-23T10:30:25;4.37;;;2.07;;
44272;SDS011;29964;17.182;-96.766;2023-05-23T10:32:52;1.90;;;1.43;;
44272;SDS011;29964;17.182;-96.766;2023-05-23T10:40:52;3.90;;;2.15;;
44272;SDS011;29964;17.182;-96.766;2023-05-23T10:45:53;3.60;;;2.60;;
44272;SDS011;29964;17.182;-96.766;2023-05-23T10:48:32;2.67;;;2.03;;
44272;SDS011;29964;17.182;-96.766;2023-05-23T10:51:03;2.93;;;1.83;;
44272;SDS011;29964;17.182;-96.766;2023-05-23T10:53:31;5.23;;;2.63;;
44272;SDS011;29964;17.182;-96.766;2023-05-23T10:55:58;5.67;;;2.47;;
44272;SDS011;29964;17.182;-96.766;2023-05-23T10:58:25;3.93;;;2.40;;
44272;SDS011;29964;17.182;-96.766;2023-05-23T11:00:55;2.50;;;1.87;;
44272;SDS011;29964;17.182;-96.766;2023-05-23T11:06:08;3.05;;;2.22;;
44272;SDS011;29964;17.182;-96.766;2023-05-23T11:09:01;3.00;;;1.80;;
44272;SDS011;29964;17.182;-96.766;2023-05-23T11:12:12;3.55;;;2.38;;
44272;SDS011;29964;17.182;-96.766;2023-05-23T11:14:14;3.17;;;2.20;;
44272;SDS011;29964;17.182;-96.766;2023-05-23T11:16:42;3.30;;;2.40;;
44272;SDS011;29964;17.182;-96.766;2023-05-23T11:21:54;4.33;;;2.00;;
44272;SDS011;29964;17.182;-96.766;2023-05-23T11:24:21;1.73;;;1.40;;
44272;SDS011;29964;17.182;-96.766;2023-05-23T11:26:57;4.57;;;2.03;;
44272;SDS011;29964;17.182;-96.766;2023-05-23T11:29:26;5.03;;;2.30;;
44272;SDS011;29964;17.182;-96.766;2023-05-23T11:31:53;2.53;;;1.60;;
44272;SDS011;29964;17.182;-96.766;2023-05-23T11:34:21;3.07;;;1.50;;
44272;SDS011;29964;17.182;-96.766;2023-05-23T11:36:51;5.13;;;2.13;;
44272;SDS011;29964;17.182;-96.766;2023-05-23T11:39:18;3.33;;;1.80;;
44272;SDS011;29964;17.182;-96.766;2023-05-23T11:41:49;2.23;;;1.70;;
44272;SDS011;29964;17.182;-96.766;2023-05-23T11:44:16;3.13;;;1.73;;
44272;SDS011;29964;17.182;-96.766;2023-05-23T11:46:44;2.10;;;1.37;;
44272;SDS011;29964;17.182;-96.766;2023-05-23T11:49:26;4.87;;;2.17;;
44272;SDS011;29964;17.182;-96.766;2023-05-23T11:51:53;2.00;;;1.63;;
44272;SDS011;29964;17.182;-96.766;2023-05-23T11:54:23;2.53;;;1.23;;
44272;SDS011;29964;17.182;-96.766;2023-05-23T11:56:51;5.20;;;2.73;;
44272;SDS011;29964;17.182;-96.766;2023-05-23T11:59:18;2.60;;;1.73;;
44272;SDS011;29964;17.182;-96.766;2023-05-23T12:01:44;1.00;;;0.80;;
44272;SDS011;29964;17.182;-96.766;2023-05-23T12:04:11;3.70;;;2.03;;
44272;SDS011;29964;17.182;-96.766;2023-05-23T12:06:38;3.13;;;2.43;;
44272;SDS011;29964;17.182;-96.766;2023-05-23T12:09:06;4.47;;;2.90;;
44272;SDS011;29964;17.182;-96.766;2023-05-23T12:11:36;2.93;;;2.13;;
44272;SDS011;29964;17.182;-96.766;2023-05-23T12:14:03;3.97;;;2.87;;
44272;SDS011;29964;17.182;-96.766;2023-05-23T12:16:31;9.63;;;2.97;;
44272;SDS011;29964;17.182;-96.766;2023-05-23T12:18:58;4.43;;;2.33;;
44272;SDS011;29964;17.182;-96.766;2023-05-23T12:21:26;7.37;;;2.90;;
44272;SDS011;29964;17.182;-96.766;2023-05-23T12:23:55;7.03;;;2.87;;
44272;SDS011;29964;17.182;-96.766;2023-05-23T12:26:22;3.30;;;2.40;;
44272;SDS011;29964;17.182;-96.766;2023-05-23T12:28:49;5.90;;;2.20;;
44272;SDS011;29964;17.182;-96.766;2023-05-23T12:31:16;3.90;;;2.23;;
44272;SDS011;29964;17.182;-96.766;2023-05-23T12:33:44;3.50;;;2.63;;
44272;SDS011;29964;17.182;-96.766;2023-05-23T12:36:15;2.37;;;1.90;;
44272;SDS011;29964;17.182;-96.766;2023-05-23T12:38:47;4.07;;;2.60;;
44272;SDS011;29964;17.182;-96.766;2023-05-23T12:41:17;3.83;;;2.63;;
44272;SDS011;29964;17.182;-96.766;2023-05-23T12:43:51;10.77;;;2.43;;
44272;SDS011;29964;17.182;-96.766;2023-05-23T12:46:21;3.73;;;2.57;;
44272;SDS011;29964;17.182;-96.766;2023-05-23T12:48:49;15.23;;;7.17;;
44272;SDS011;29964;17.182;-96.766;2023-05-23T12:51:16;6.50;;;5.70;;
44272;SDS011;29964;17.182;-96.766;2023-05-23T12:53:42;11.33;;;5.83;;
44272;SDS011;29964;17.182;-96.766;2023-05-23T12:56:09;7.07;;;5.87;;
44272;SDS011;29964;17.182;-96.766;2023-05-23T12:58:39;7.30;;;4.83;;
44272;SDS011;29964;17.182;-96.766;2023-05-23T13:01:06;7.17;;;5.43;;
44272;SDS011;29964;17.182;-96.766;2023-05-23T13:03:33;7.87;;;5.07;;
44272;SDS011;29964;17.182;-96.766;2023-05-23T13:06:00;6.73;;;5.07;;
44272;SDS011;29964;17.182;-96.766;2023-05-23T13:08:26;7.40;;;5.60;;
44272;SDS011;29964;17.182;-96.766;2023-05-23T13:10:53;41.03;;;7.17;;
44272;SDS011;29964;17.182;-96.766;2023-05-23T13:13:20;10.80;;;7.40;;
44272;SDS011;29964;17.182;-96.766;2023-05-23T13:15:47;22.37;;;8.90;;
44272;SDS011;29964;17.182;-96.766;2023-05-23T13:18:14;8.53;;;5.50;;
44272;SDS011;29964;17.182;-96.766;2023-05-23T13:20:41;9.23;;;5.73;;
44272;SDS011;29964;17.182;-96.766;2023-05-23T13:23:08;21.97;;;8.13;;
44272;SDS011;29964;17.182;-96.766;2023-05-23T13:25:34;9.80;;;6.27;;
44272;SDS011;29964;17.182;-96.766;2023-05-23T13:28:01;11.67;;;6.70;;
44272;SDS011;29964;17.182;-96.766;2023-05-23T13:30:28;7.13;;;5.03;;
44272;SDS011;29964;17.182;-96.766;2023-05-23T13:32:55;10.80;;;5.13;;
44272;SDS011;29964;17.182;-96.766;2023-05-23T13:35:22;15.50;;;6.83;;
44272;SDS011;29964;17.182;-96.766;2023-05-23T13:37:48;11.67;;;7.83;;
44272;SDS011;29964;17.182;-96.766;2023-05-23T13:40:16;8.37;;;5.97;;
44272;SDS011;29964;17.182;-96.766;2023-05-23T13:42:43;7.47;;;5.53;;
44272;SDS011;29964;17.182;-96.766;2023-05-23T13:45:10;12.50;;;6.03;;
44272;SDS011;29964;17.182;-96.766;2023-05-23T13:47:37;7.87;;;6.13;;
44272;SDS011;29964;17.182;-96.766;2023-05-23T13:50:04;14.83;;;6.33;;
44272;SDS011;29964;17.182;-96.766;2023-05-23T13:52:31;9.77;;;5.77;;
44272;SDS011;29964;17.182;-96.766;2023-05-23T13:54:58;5.53;;;4.37;;
44272;SDS011;29964;17.182;-96.766;2023-05-23T13:57:26;7.57;;;4.43;;
44272;SDS011;29964;17.182;-96.766;2023-05-23T13:59:52;6.63;;;4.70;;
44272;SDS011;29964;17.182;-96.766;2023-05-23T14:02:19;8.87;;;5.23;;
44272;SDS011;29964;17.182;-96.766;2023-05-23T14:04:49;8.53;;;3.87;;
44272;SDS011;29964;17.182;-96.766;2023-05-23T14:07:19;5.27;;;3.00;;
44272;SDS011;29964;17.182;-96.766;2023-05-23T14:09:46;5.23;;;3.50;;
44272;SDS011;29964;17.182;-96.766;2023-05-23T14:12:13;4.93;;;3.07;;
44272;SDS011;29964;17.182;-96.766;2023-05-23T14:14:39;4.27;;;3.07;;
44272;SDS011;29964;17.182;-96.766;2023-05-23T14:17:06;4.70;;;3.57;;
44272;SDS011;29964;17.182;-96.766;2023-05-23T14:19:33;3.87;;;3.03;;
44272;SDS011;29964;17.182;-96.766;2023-05-23T14:22:00;4.37;;;2.97;;
44272;SDS011;29964;17.182;-96.766;2023-05-23T14:24:27;4.83;;;3.30;;
44272;SDS011;29964;17.182;-96.766;2023-05-23T14:26:54;4.97;;;3.80;;
44272;SDS011;29964;17.182;-96.766;2023-05-23T14:29:21;8.63;;;4.10;;
44272;SDS011;29964;17.182;-96.766;2023-05-23T14:31:47;9.23;;;5.70;;
44272;SDS011;29964;17.182;-96.766;2023-05-23T14:34:14;6.03;;;3.70;;
44272;SDS011;29964;17.182;-96.766;2023-05-23T14:36:42;6.03;;;4.90;;
44272;SDS011;29964;17.182;-96.766;2023-05-23T14:39:08;7.97;;;5.47;;
44272;SDS011;29964;17.182;-96.766;2023-05-23T14:41:35;7.90;;;5.57;;
44272;SDS011;29964;17.182;-96.766;2023-05-23T14:44:02;10.13;;;5.83;;
44272;SDS011;29964;17.182;-96.766;2023-05-23T14:46:29;8.83;;;5.33;;
44272;SDS011;29964;17.182;-96.766;2023-05-23T14:48:56;6.60;;;5.37;;